Richmond, VA (23236)

11:12 AM EST on March 01, 2015 (GMT -0500)
2 Miles SSE Midlothian | Change Station
CLOSE
Current Station
Personal Weather Station
Location: Midlothian, VA
Elevation: 266 ft
Nearby Weather Stations
Active Advisory: Winter Weather Advisory

Elev 266 ft 37.47 °N, 77.62 °W | Updated 1 minute ago

Overcast
Overcast
27.9 °F
Feels Like 28 °F
N
0.0
Wind Variable Wind from SSW
Gusts 1.0 mph

Today
High -- | Low -- °F
--% Chance of Precip.
Yesterday
High -- | Low -- °F
Precip. -- in
6:41 AM 6:03 PM
Waxing Gibbous, 86% visible
Pressure 30.62 in
Visibility 4.0 miles
Clouds Mostly Cloudy 2200 ft
Overcast 3100 ft
Windchill 28 °F
Dew Point 24 °F
Humidity 87%
Rainfall 0.00 in
Snow Depth Not available.
UV 2 out of 12
Pollen .90 out of 12
Air Quality Not available.
Flu Activity Not available.
METAR KRIC 011554Z 36004KT 4SM -FZRA BR BKN022 OVC031 M02/M06 A3060 RMK AO2 FZDZE52FZRAB52 SLP369 P0000 T10171061

More Conditions Fewer Conditions

Pressure 30.62 in
Visibility 4.0 miles
Clouds Mostly Cloudy 2200 ft
Overcast 3100 ft
Windchill 28 °F
Dew Point 24 °F
Humidity 87%
Rainfall 0.00 in
Snow Depth Not available.
UV 2 out of 12
Pollen .90 out of 12
Air Quality Not available.
Flu Activity Not available.
METAR KRIC 011554Z 36004KT 4SM -FZRA BR BKN022 OVC031 M02/M06 A3060 RMK AO2 FZDZE52FZRAB52 SLP369 P0000 T10171061

More Conditions Fewer Conditions

10-Day Weather Forecast

Almanac

Astronomy

Mar. 01, 2015 Rise Set
Actual Time
Civil Twilight
Nautical Twilight
Astronomical Twilight
Moon
Length of Visible Light
Length of Day
Tomorrow will be .
, % of the Moon is Illuminated

Today's Extremes

State Highs State Lows

Community

WunderPhotos

Upload Photos

1,801,439 photos uploaded!

WunderBlogs® & News

Nearby

Air Quality

  Air Quality AQ Index Pollutant
Not available.

Snow Depth

Station Depth Elevation

Earthquake Activity

City Distance Mag. Time & Date
Minimum magnitude displayed is 2.5.

Coastal Water Temperatures

Place Temperature

Nearby Weather Stations

Winter Weather Advisory
Statement as of 10:25 AM EST on March 01, 2015

... Winter Weather Advisory remains in effect until 4 PM EST this
afternoon...

A Winter Weather Advisory remains in effect until 4 PM EST this
afternoon.

* Areas affected: portions of central and southern Virginia.

* Hazards: freezing rain.

* Accumulations: less than one tenth of an inch of ice
accumulation.

* Temperatures: upper 20s this morning... then rising into the
lower to mid 30s by this afternoon.

* Timing: freezing rain through midday and early afternoon... then
transitioning to all rain by late this afternoon.

* Impacts: hazardous travel due to ice covered roads... bridges
and overpasses.

Precautionary/preparedness actions...

A Winter Weather Advisory means that periods of snow... sleet... or
freezing rain will cause travel difficulties. Be prepared for
slippery roads and limited visibilities... and use caution while
driving.